Time;durP1;ratioP1;P1;durP2;ratioP2;P2;SDS_P1;SDS_P2;PMS_P1;PMS_P2;Temp;Humidity;BMP_temperature;BMP_pressure;BME280_temperature;BME280_humidity;BME280_pressure;Samples;Min_cycle;Max_cycle;Signal;HPM_P1;HPM_P2
2020/12/26 00:04:08;;;;;;;;;;;;;;;;;;;;;
2020/12/26 00:06:46;;;;;;;13.80;7.97;;;2.30;99.90;;;;;;4998808;28;20041;-95
2020/12/26 00:12:33;;;;;;;19.93;9.00;;;2.40;99.90;;;;;;4990547;28;20057;-95
2020/12/26 00:18:51;;;;;;;10.02;6.15;;;2.50;99.90;;;;;;4985671;28;20046;-96
2020/12/26 00:21:37;;;;;;;12.00;7.80;;;2.40;99.90;;;;;;4964061;28;20042;-95
2020/12/26 00:24:32;;;;;;;9.90;6.88;;;2.50;99.90;;;;;;4981105;28;20034;-95
2020/12/26 00:27:21;;;;;;;11.75;7.30;;;2.50;99.90;;;;;;4971668;28;20041;-95
2020/12/26 00:30:27;;;;;;;10.85;6.43;;;2.50;99.90;;;;;;4978731;28;20398;-95
2020/12/26 00:33:03;;;;;;;9.95;6.85;;;2.50;99.90;;;;;;4974986;28;20030;-95
2020/12/26 00:35:38;;;;;;;12.35;6.75;;;2.50;99.90;;;;;;4958674;28;20038;-95
2020/12/26 00:38:04;;;;;;;10.90;7.40;;;2.60;99.90;;;;;;4966522;28;20034;-94
2020/12/26 00:40:32;;;;;;;12.50;8.55;;;2.60;99.90;;;;;;4975087;28;20027;-95
2020/12/26 00:43:27;;;;;;;13.63;7.78;;;2.60;99.90;;;;;;4960642;28;20034;-96
2020/12/26 00:46:32;;;;;;;11.98;7.75;;;2.60;99.90;;;;;;4890293;29;20122;-96
2020/12/26 00:49:05;;;;;;;13.27;7.97;;;2.60;99.90;;;;;;4992158;28;20042;-96
2020/12/26 00:51:39;;;;;;;11.77;7.72;;;2.60;99.90;;;;;;4991079;28;20045;-94
2020/12/26 00:54:37;;;;;;;13.07;7.97;;;2.70;99.90;;;;;;5016006;28;20131;-95
2020/12/26 00:57:16;;;;;;;;;;;;;;;;;;;;;
2020/12/26 00:59:48;;;;;;;12.82;8.07;;;2.70;99.90;;;;;;5010902;28;20293;-94
2020/12/26 01:02:25;;;;;;;14.00;8.70;;;2.70;99.90;;;;;;5014125;28;20045;-96
2020/12/26 01:05:17;;;;;;;13.02;7.57;;;2.70;99.90;;;;;;5013966;28;20117;-94
2020/12/26 01:07:53;;;;;;;15.13;8.90;;;2.70;99.90;;;;;;5007211;28;20084;-93
2020/12/26 01:10:31;;;;;;;13.07;8.25;;;2.70;99.90;;;;;;5015209;28;20085;-94
2020/12/26 01:13:00;;;;;;;12.73;9.23;;;2.70;99.90;;;;;;5013684;28;20509;-94
2020/12/26 01:15:29;;;;;;;14.02;9.48;;;2.70;99.90;;;;;;4994779;28;20097;-94
2020/12/26 01:18:18;;;;;;;14.75;9.48;;;2.80;99.90;;;;;;4979092;28;20041;-95
2020/12/26 01:20:52;;;;;;;17.38;9.70;;;2.80;99.90;;;;;;5008737;28;20403;-92
2020/12/26 01:23:21;;;;;;;16.42;9.68;;;2.80;99.90;;;;;;5031934;28;20032;-94
2020/12/26 01:25:52;;;;;;;15.82;10.35;;;2.80;99.90;;;;;;5015491;28;20036;-93
2020/12/26 01:28:23;;;;;;;13.95;9.13;;;2.80;99.90;;;;;;4995919;28;20026;-92
2020/12/26 01:31:12;;;;;;;13.60;9.18;;;2.80;99.90;;;;;;5001824;28;20035;-93
2020/12/26 01:33:41;;;;;;;16.80;11.40;;;2.80;99.90;;;;;;4999993;28;20030;-93
2020/12/26 01:36:16;;;;;;;11.55;9.32;;;2.90;99.90;;;;;;5021382;28;20032;-92
2020/12/26 01:38:45;;;;;;;17.50;10.60;;;2.90;99.90;;;;;;4990127;28;20078;-94
2020/12/26 01:41:14;;;;;;;13.32;9.77;;;2.90;99.90;;;;;;5007460;28;20029;-96
2020/12/26 01:44:04;;;;;;;12.35;9.35;;;2.90;99.90;;;;;;5024755;28;20033;-95
2020/12/26 01:46:32;;;;;;;13.07;8.35;;;3.00;99.90;;;;;;5031628;28;20091;-95
2020/12/26 01:49:01;;;;;;;13.70;9.18;;;2.90;99.90;;;;;;5023970;28;20022;-93
2020/12/26 01:51:30;;;;;;;10.82;8.02;;;3.00;99.90;;;;;;4997378;28;20069;-94
2020/12/26 01:54:07;;;;;;;11.63;8.07;;;3.00;99.90;;;;;;5030989;28;20057;-93
2020/12/26 01:56:39;;;;;;;13.90;8.70;;;3.00;99.90;;;;;;5028807;28;20033;-94
2020/12/26 01:59:06;;;;;;;14.40;9.25;;;3.00;99.90;;;;;;5014105;28;20458;-93
2020/12/26 02:01:43;;;;;;;15.40;10.00;;;3.00;99.90;;;;;;4997333;28;20045;-93
2020/12/26 02:04:12;;;;;;;18.10;11.30;;;3.10;99.90;;;;;;5013184;28;20045;-93
2020/12/26 02:07:00;;;;;;;13.27;9.68;;;3.10;99.90;;;;;;5025655;28;20035;-94
2020/12/26 02:09:30;;;;;;;15.98;9.20;;;3.10;99.90;;;;;;4999490;28;20057;-94
2020/12/26 02:11:58;;;;;;;14.30;9.27;;;3.10;99.90;;;;;;5014690;28;20065;-93
2020/12/26 02:14:27;;;;;;;14.13;8.43;;;3.10;99.90;;;;;;5013100;28;20112;-92
2020/12/26 02:16:54;;;;;;;13.65;7.47;;;3.10;99.90;;;;;;5005935;28;20066;-93
2020/12/26 02:19:22;;;;;;;9.70;7.07;;;3.20;99.90;;;;;;4996032;28;20099;-92
2020/12/26 02:21:49;;;;;;;9.10;6.97;;;3.20;99.90;;;;;;5011799;28;20029;-93
2020/12/26 02:24:15;;;;;;;10.48;7.05;;;3.20;99.90;;;;;;5011341;28;20072;-93
2020/12/26 02:26:41;;;;;;;11.32;7.22;;;3.20;99.90;;;;;;5012161;28;20517;-92
2020/12/26 02:29:08;;;;;;;12.10;7.93;;;3.30;99.90;;;;;;5015449;28;20138;-91
2020/12/26 02:31:35;;;;;;;11.00;7.93;;;3.30;99.90;;;;;;4981893;28;20049;-93
2020/12/26 02:34:03;;;;;;;14.63;8.88;;;3.30;99.90;;;;;;5013095;28;20129;-92
2020/12/26 02:36:29;;;;;;;14.15;9.27;;;3.30;99.90;;;;;;5013109;28;20034;-91
2020/12/26 02:38:54;;;;;;;14.02;8.82;;;3.40;99.90;;;;;;5029849;28;20413;-92
2020/12/26 02:41:20;;;;;;;13.00;8.55;;;3.40;99.90;;;;;;4997454;28;20089;-92
2020/12/26 02:43:47;;;;;;;11.75;8.30;;;3.40;99.90;;;;;;5013666;28;20118;-93
2020/12/26 02:46:13;;;;;;;11.85;8.10;;;3.40;99.90;;;;;;5015159;28;20109;-92
2020/12/26 02:48:39;;;;;;;11.02;8.38;;;3.40;99.90;;;;;;5014734;28;20030;-92
2020/12/26 02:51:04;;;;;;;12.57;7.55;;;3.40;99.90;;;;;;5014445;28;20045;-92
2020/12/26 02:53:30;;;;;;;11.07;7.97;;;3.40;99.90;;;;;;5015654;28;20479;-93
2020/12/26 02:55:56;;;;;;;11.80;7.60;;;3.40;99.90;;;;;;5014742;28;20454;-93
2020/12/26 02:58:22;;;;;;;11.77;8.25;;;3.50;99.90;;;;;;5015395;28;20116;-93
2020/12/26 03:00:49;;;;;;;9.23;7.10;;;3.40;99.90;;;;;;5014875;28;20030;-94
2020/12/26 03:03:15;;;;;;;13.25;8.77;;;3.40;99.90;;;;;;5014928;28;20048;-94
2020/12/26 03:05:48;;;;;;;11.10;7.53;;;3.40;99.90;;;;;;5015419;28;20053;-93
2020/12/26 03:08:14;;;;;;;12.18;9.32;;;3.40;99.90;;;;;;5013861;28;20478;-93
2020/12/26 03:10:39;;;;;;;17.17;10.10;;;3.40;99.90;;;;;;5014101;28;20041;-92
2020/12/26 03:13:06;;;;;;;15.02;10.25;;;3.40;99.90;;;;;;5013042;28;20406;-93
2020/12/26 03:15:32;;;;;;;15.23;10.48;;;3.30;99.90;;;;;;5013650;28;20038;-96
2020/12/26 03:17:57;;;;;;;14.30;10.13;;;3.30;99.90;;;;;;5012650;28;20033;-93
2020/12/26 03:20:23;;;;;;;13.20;9.75;;;3.40;99.90;;;;;;5014368;28;20034;-94
2020/12/26 03:22:50;;;;;;;14.63;9.50;;;3.30;99.90;;;;;;5013310;28;20040;-93
2020/12/26 03:25:15;;;;;;;14.25;9.90;;;3.30;99.90;;;;;;5030008;28;20022;-95
2020/12/26 03:27:41;;;;;;;13.98;10.43;;;3.20;99.90;;;;;;5013301;28;20057;-94
2020/12/26 03:30:06;;;;;;;15.63;10.32;;;3.20;99.90;;;;;;5017067;28;20034;-94
2020/12/26 03:32:32;;;;;;;16.58;10.05;;;3.20;99.90;;;;;;5020305;28;20371;-93
2020/12/26 03:34:58;;;;;;;16.60;10.63;;;3.10;99.90;;;;;;5017849;28;20046;-93
2020/12/26 03:37:23;;;;;;;14.32;9.77;;;3.10;99.90;;;;;;5017466;28;20045;-93
2020/12/26 03:39:49;;;;;;;13.07;10.25;;;3.00;99.90;;;;;;5034356;28;20374;-93
2020/12/26 03:42:14;;;;;;;12.02;9.57;;;3.00;99.90;;;;;;5017346;28;20121;-94
2020/12/26 03:44:40;;;;;;;14.55;9.23;;;2.90;99.90;;;;;;5017924;28;20485;-94
2020/12/26 03:47:08;;;;;;;16.13;9.60;;;2.80;99.90;;;;;;5017474;28;20374;-94
2020/12/26 03:49:34;;;;;;;12.90;8.77;;;2.80;99.90;;;;;;5017468;28;20365;-94
2020/12/26 03:52:00;;;;;;;12.55;8.23;;;2.70;99.90;;;;;;5017555;28;20096;-96
2020/12/26 03:54:25;;;;;;;13.40;8.60;;;2.70;99.90;;;;;;5018557;28;20045;-93
2020/12/26 03:56:52;;;;;;;14.23;7.75;;;2.70;99.90;;;;;;5018680;28;20450;-93
2020/12/26 03:59:18;;;;;;;11.07;6.88;;;2.70;99.90;;;;;;5017923;28;20026;-93
2020/12/26 04:01:44;;;;;;;12.88;7.57;;;2.70;99.90;;;;;;5017018;28;20029;-93
2020/12/26 04:04:13;;;;;;;10.13;7.05;;;2.70;99.90;;;;;;5017734;28;20041;-93
2020/12/26 04:06:39;;;;;;;11.07;7.88;;;2.70;99.90;;;;;;5017246;28;20074;-94
2020/12/26 04:09:05;;;;;;;10.20;6.50;;;2.70;99.90;;;;;;5017686;28;20076;-92
2020/12/26 04:11:31;;;;;;;10.02;6.90;;;2.70;99.90;;;;;;5017516;28;20080;-92
2020/12/26 04:13:57;;;;;;;12.60;6.85;;;2.70;99.90;;;;;;5000837;28;20141;-92
2020/12/26 04:16:22;;;;;;;11.65;6.68;;;2.70;99.90;;;;;;5017457;28;20111;-92
2020/12/26 04:18:48;;;;;;;9.50;5.75;;;2.70;99.90;;;;;;5017338;28;20033;-92
2020/12/26 04:21:13;;;;;;;7.60;5.75;;;2.60;99.90;;;;;;5018286;28;20037;-95
2020/12/26 04:23:41;;;;;;;10.15;7.22;;;2.60;99.90;;;;;;5016711;28;20092;-93
2020/12/26 04:26:10;;;;;;;10.07;6.20;;;2.60;99.90;;;;;;5016314;28;20034;-93
2020/12/26 04:28:35;;;;;;;12.45;5.88;;;2.60;99.90;;;;;;5017228;28;20084;-94
2020/12/26 04:31:01;;;;;;;10.10;6.22;;;2.60;99.90;;;;;;5016801;28;20034;-93
2020/12/26 04:33:27;;;;;;;10.73;6.00;;;2.60;99.90;;;;;;5000693;28;20033;-93
2020/12/26 04:35:53;;;;;;;10.90;5.93;;;2.60;99.90;;;;;;5033611;28;20105;-93
2020/12/26 04:38:18;;;;;;;10.65;6.30;;;2.50;99.90;;;;;;5016891;28;20030;-92
2020/12/26 04:40:45;;;;;;;9.07;5.68;;;2.50;99.90;;;;;;5016760;28;20037;-92
2020/12/26 04:43:10;;;;;;;8.95;5.95;;;2.60;99.90;;;;;;5015568;28;20037;-93
2020/12/26 04:45:38;;;;;;;13.85;7.05;;;2.50;99.90;;;;;;5016468;28;20030;-94
2020/12/26 04:48:06;;;;;;;10.40;6.03;;;2.60;99.90;;;;;;5001027;28;20037;-94
2020/12/26 04:50:34;;;;;;;8.57;5.90;;;2.60;99.90;;;;;;5016541;28;20030;-94
2020/12/26 04:53:03;;;;;;;10.52;5.55;;;2.50;99.90;;;;;;5018152;28;20041;-92
2020/12/26 04:55:36;;;;;;;8.50;6.10;;;2.50;99.90;;;;;;5016644;28;20128;-94
2020/12/26 04:58:09;;;;;;;7.97;5.88;;;2.50;99.90;;;;;;5019270;28;20034;-93
2020/12/26 05:00:35;;;;;;;7.22;5.22;;;2.50;99.90;;;;;;5016861;28;20045;-93
2020/12/26 05:03:05;;;;;;;11.98;5.68;;;2.50;99.90;;;;;;5000493;28;20030;-93
2020/12/26 05:05:35;;;;;;;12.52;6.85;;;2.50;99.90;;;;;;5019396;28;20401;-93
2020/12/26 05:08:05;;;;;;;15.00;7.25;;;2.50;99.90;;;;;;5018234;28;20084;-94
2020/12/26 05:10:31;;;;;;;8.98;6.38;;;2.50;99.90;;;;;;5016445;28;20040;-93
2020/12/26 05:12:57;;;;;;;9.00;6.03;;;2.50;99.90;;;;;;5016505;28;20092;-93
2020/12/26 05:15:24;;;;;;;11.27;6.55;;;2.40;99.90;;;;;;5015756;28;20065;-93
2020/12/26 05:17:49;;;;;;;11.13;6.40;;;2.40;99.90;;;;;;5032810;28;20022;-94
2020/12/26 05:20:15;;;;;;;15.45;6.63;;;2.40;99.90;;;;;;5015737;28;20026;-94
2020/12/26 05:22:40;;;;;;;11.68;6.55;;;2.40;99.90;;;;;;4999973;28;20120;-95
2020/12/26 05:25:10;;;;;;;7.80;4.70;;;2.40;99.90;;;;;;5016412;28;20026;-96
2020/12/26 05:27:36;;;;;;;9.07;6.20;;;2.40;99.90;;;;;;5016553;28;20065;-95
2020/12/26 05:30:06;;;;;;;10.60;6.95;;;2.50;99.90;;;;;;5017153;28;20034;-96
2020/12/26 05:32:33;;;;;;;10.25;6.88;;;2.50;99.90;;;;;;5015538;28;20030;-93
2020/12/26 05:35:07;;;;;;;11.75;7.38;;;2.50;99.90;;;;;;5015521;28;20036;-94
2020/12/26 05:37:33;;;;;;;9.43;5.85;;;2.50;99.90;;;;;;5015963;28;20029;-92
2020/12/26 05:40:01;;;;;;;10.63;6.88;;;2.60;99.90;;;;;;5015690;28;20026;-93
2020/12/26 05:42:28;;;;;;;16.20;7.65;;;2.60;99.90;;;;;;4999471;28;20034;-93
2020/12/26 05:45:04;;;;;;;10.23;6.78;;;2.60;99.90;;;;;;5015922;28;20060;-93
2020/12/26 05:47:30;;;;;;;13.63;8.82;;;2.60;99.90;;;;;;4999445;28;20046;-93
2020/12/26 05:49:57;;;;;;;12.82;8.57;;;2.60;99.90;;;;;;5016633;28;20026;-95
2020/12/26 05:52:28;;;;;;;14.00;9.02;;;2.60;99.90;;;;;;5016396;28;20054;-93
2020/12/26 05:54:54;;;;;;;13.23;8.20;;;2.70;99.90;;;;;;5015639;28;20048;-93
2020/12/26 05:57:20;;;;;;;15.13;8.60;;;2.70;99.90;;;;;;5015195;28;20038;-94
2020/12/26 05:59:50;;;;;;;14.85;8.88;;;2.70;99.90;;;;;;5016651;28;20117;-96
2020/12/26 06:02:21;;;;;;;11.90;8.65;;;2.70;99.90;;;;;;5015456;28;20470;-93
2020/12/26 06:05:02;;;;;;;12.15;8.32;;;2.70;99.90;;;;;;4999532;28;20128;-94
2020/12/26 06:07:32;;;;;;;12.75;9.07;;;2.70;99.90;;;;;;5015959;28;20064;-94
2020/12/26 06:10:01;;;;;;;13.82;9.73;;;2.80;99.90;;;;;;5013768;28;20462;-93
2020/12/26 06:12:28;;;;;;;13.80;10.27;;;2.80;99.90;;;;;;5015723;28;20462;-95
2020/12/26 06:14:55;;;;;;;14.18;9.85;;;2.80;99.90;;;;;;5015198;28;20103;-95
2020/12/26 06:17:29;;;;;;;16.85;10.65;;;2.80;99.90;;;;;;4999104;28;20046;-95
2020/12/26 06:20:06;;;;;;;15.70;10.07;;;2.90;99.90;;;;;;5015120;28;20116;-95
2020/12/26 06:22:44;;;;;;;13.50;10.48;;;2.90;99.90;;;;;;5016805;28;20042;-94
2020/12/26 06:25:31;;;;;;;14.27;10.20;;;2.90;99.90;;;;;;5016112;28;20029;-94
2020/12/26 06:28:02;;;;;;;16.63;11.48;;;2.80;99.90;;;;;;5025915;28;20030;-94
2020/12/26 06:30:29;;;;;;;16.05;11.27;;;2.80;99.90;;;;;;5028990;28;20026;-93
2020/12/26 06:32:57;;;;;;;16.02;9.93;;;2.80;99.90;;;;;;5037961;28;20029;-94
2020/12/26 06:35:23;;;;;;;16.85;11.57;;;2.70;99.90;;;;;;5054763;28;20046;-94
2020/12/26 06:38:20;;;;;;;16.08;11.48;;;2.70;99.90;;;;;;5037763;28;20026;-93
2020/12/26 06:41:05;;;;;;;18.20;11.85;;;2.80;99.90;;;;;;5025550;28;20033;-94
2020/12/26 06:43:46;;;;;;;20.33;14.23;;;2.90;99.90;;;;;;5017415;28;20062;-93
2020/12/26 06:46:22;;;;;;;20.17;14.68;;;2.80;99.90;;;;;;5015413;28;20026;-94
2020/12/26 06:48:49;;;;;;;21.15;16.23;;;2.90;99.90;;;;;;5014710;28;20036;-94
2020/12/26 06:51:28;;;;;;;23.65;16.42;;;2.90;99.90;;;;;;5015894;28;20046;-93
2020/12/26 06:53:56;;;;;;;19.42;15.95;;;3.00;99.90;;;;;;5015549;28;20042;-94
2020/12/26 06:56:36;;;;;;;24.80;16.10;;;3.00;99.90;;;;;;5015767;28;20037;-95
2020/12/26 06:59:03;;;;;;;25.02;17.48;;;3.00;99.90;;;;;;5014846;28;20041;-95
2020/12/26 07:01:31;;;;;;;21.15;15.20;;;3.00;99.90;;;;;;5014054;28;20041;-94
2020/12/26 07:04:12;;;;;;;20.48;15.25;;;3.10;99.90;;;;;;5016561;28;20095;-93
2020/12/26 07:06:44;;;;;;;24.33;17.15;;;3.10;99.90;;;;;;5015737;28;20021;-93
2020/12/26 07:09:12;;;;;;;22.75;16.23;;;3.10;99.90;;;;;;5013980;28;20120;-93
2020/12/26 07:11:52;;;;;;;20.85;16.45;;;3.10;99.90;;;;;;5014385;28;20033;-94
2020/12/26 07:14:37;;;;;;;22.58;17.05;;;3.10;99.90;;;;;;5014990;28;20038;-94
2020/12/26 07:17:23;;;;;;;25.08;18.23;;;3.10;99.90;;;;;;5014569;28;20038;-95
2020/12/26 07:19:53;;;;;;;25.85;18.70;;;3.10;99.90;;;;;;5014377;28;20060;-92
2020/12/26 07:22:28;;;;;;;26.98;18.35;;;3.10;99.90;;;;;;5014248;28;20030;-94
2020/12/26 07:24:55;;;;;;;25.48;18.85;;;3.10;99.90;;;;;;5014088;28;20072;-95
2020/12/26 07:27:38;;;;;;;24.35;18.77;;;3.10;99.90;;;;;;5014145;28;20489;-94
2020/12/26 07:30:11;;;;;;;25.23;18.67;;;3.00;99.90;;;;;;5014513;28;20026;-93
2020/12/26 07:32:42;;;;;;;23.08;17.20;;;3.00;99.90;;;;;;5013818;28;20037;-95
2020/12/26 07:35:28;;;;;;;24.88;17.88;;;3.00;99.90;;;;;;5013990;28;20130;-95
2020/12/26 07:38:16;;;;;;;25.83;19.23;;;3.00;99.90;;;;;;5014756;28;20034;-94
2020/12/26 07:40:44;;;;;;;28.65;18.27;;;3.00;99.90;;;;;;5013903;28;20021;-94
2020/12/26 07:43:16;;;;;;;21.90;17.33;;;3.00;99.90;;;;;;5014197;28;20088;-93
2020/12/26 07:45:48;;;;;;;23.95;18.25;;;3.00;99.90;;;;;;5015064;28;20030;-94
2020/12/26 07:48:14;;;;;;;23.58;18.23;;;3.00;99.90;;;;;;5014412;28;20129;-93
2020/12/26 07:50:48;;;;;;;22.55;17.60;;;3.00;99.90;;;;;;4997077;28;20076;-94
2020/12/26 07:53:17;;;;;;;24.42;18.80;;;3.00;99.90;;;;;;5013754;28;20097;-94
2020/12/26 07:55:43;;;;;;;24.65;17.45;;;3.00;99.90;;;;;;5013920;28;20033;-93
2020/12/26 07:58:15;;;;;;;22.58;16.85;;;3.00;99.90;;;;;;5013759;28;20026;-93
2020/12/26 08:00:42;;;;;;;25.95;17.58;;;3.00;99.90;;;;;;5013895;28;20033;-93
2020/12/26 08:03:10;;;;;;;23.80;17.33;;;3.00;99.90;;;;;;4998324;28;20037;-95
2020/12/26 08:05:38;;;;;;;20.67;15.73;;;3.00;99.90;;;;;;5013755;28;20063;-93
2020/12/26 08:08:20;;;;;;;21.63;15.73;;;3.00;99.90;;;;;;5015240;28;20037;-94
2020/12/26 08:10:46;;;;;;;22.40;15.63;;;3.00;99.90;;;;;;5014631;28;20420;-93
2020/12/26 08:13:16;;;;;;;21.92;15.30;;;3.00;99.90;;;;;;4984312;28;20037;-92
2020/12/26 08:15:42;;;;;;;23.20;15.63;;;3.10;99.90;;;;;;5017745;28;20125;-94
2020/12/26 08:18:09;;;;;;;23.92;15.68;;;3.00;99.90;;;;;;5014824;28;20444;-93
2020/12/26 08:20:37;;;;;;;19.75;14.77;;;3.00;99.90;;;;;;5018174;28;20029;-94
2020/12/26 08:23:06;;;;;;;20.48;14.55;;;3.00;99.90;;;;;;5018704;28;20034;-92
2020/12/26 08:25:32;;;;;;;22.55;15.00;;;3.10;99.90;;;;;;5019078;28;20084;-93
2020/12/26 08:27:58;;;;;;;20.83;13.77;;;3.10;99.90;;;;;;5018877;28;20026;-95
2020/12/26 08:30:27;;;;;;;19.77;14.77;;;3.20;99.90;;;;;;5002102;28;20045;-94
2020/12/26 08:32:59;;;;;;;18.65;12.65;;;3.20;99.90;;;;;;5017445;28;20038;-94
2020/12/26 08:35:27;;;;;;;18.20;13.10;;;3.20;99.90;;;;;;5017886;28;20034;-93
2020/12/26 08:38:03;;;;;;;18.67;13.20;;;3.20;99.90;;;;;;5015388;28;20117;-93
2020/12/26 08:40:37;;;;;;;21.77;14.23;;;3.30;99.90;;;;;;5016167;28;20018;-94
2020/12/26 08:43:04;;;;;;;19.63;13.75;;;3.30;99.90;;;;;;5015603;28;20045;-93
2020/12/26 08:45:34;;;;;;;22.77;13.90;;;3.30;99.90;;;;;;5017044;28;20060;-93
2020/12/26 08:48:14;;;;;;;20.27;12.90;;;3.40;99.90;;;;;;5015638;28;20021;-93
2020/12/26 08:50:41;;;;;;;16.45;11.98;;;3.30;99.90;;;;;;5000864;28;20050;-93
2020/12/26 08:53:11;;;;;;;15.55;11.50;;;3.30;99.90;;;;;;4978011;28;20030;-94
2020/12/26 08:56:12;;;;;;;21.13;13.70;;;3.40;99.90;;;;;;4975791;28;20073;-93
2020/12/26 08:58:46;;;;;;;16.20;11.60;;;3.40;99.90;;;;;;4972852;28;20174;-95
2020/12/26 09:01:12;;;;;;;15.80;11.18;;;3.50;99.90;;;;;;4979617;28;20122;-95
2020/12/26 09:03:38;;;;;;;18.20;11.02;;;3.50;99.90;;;;;;4992863;28;20035;-94
2020/12/26 09:06:05;;;;;;;14.68;10.95;;;3.50;99.90;;;;;;4995831;28;20407;-94
2020/12/26 09:08:35;;;;;;;13.98;10.73;;;3.50;99.90;;;;;;4980095;28;20030;-94
2020/12/26 09:11:12;;;;;;;18.20;10.75;;;3.50;99.90;;;;;;4980292;28;20028;-95
2020/12/26 09:13:37;;;;;;;13.88;9.68;;;3.50;99.90;;;;;;4980038;28;20044;-94
2020/12/26 09:16:10;;;;;;;15.50;10.45;;;3.50;99.90;;;;;;4971567;28;20109;-93
2020/12/26 09:18:40;;;;;;;14.27;9.07;;;3.70;99.90;;;;;;4979420;28;20153;-94
2020/12/26 09:21:08;;;;;;;13.73;9.32;;;3.90;99.90;;;;;;4979980;28;20026;-93
2020/12/26 09:23:41;;;;;;;13.93;9.90;;;4.30;99.90;;;;;;4980400;28;20189;-93
2020/12/26 09:26:17;;;;;;;;;;;4.80;99.90;;;;;;4980901;28;20113;-94
2020/12/26 09:29:01;;;;;;;12.45;8.77;;;5.20;99.90;;;;;;4979812;28;19905;-95
2020/12/26 09:31:27;;;;;;;14.90;7.43;;;5.70;99.90;;;;;;4977725;28;20034;-94
2020/12/26 09:33:54;;;;;;;11.43;8.07;;;6.10;99.90;;;;;;4979821;28;20072;-94
2020/12/26 09:36:22;;;;;;;11.55;7.00;;;6.70;99.90;;;;;;4979898;28;20041;-93
2020/12/26 09:38:49;;;;;;;11.15;6.00;;;7.20;99.90;;;;;;4963965;28;20073;-93
2020/12/26 09:41:20;;;;;;;9.98;6.03;;;7.40;99.90;;;;;;4974295;28;20152;-93
2020/12/26 09:43:48;;;;;;;9.98;6.05;;;7.30;99.90;;;;;;4979543;28;20026;-90
2020/12/26 09:46:17;;;;;;;10.48;5.93;;;7.00;99.90;;;;;;4979718;28;20042;-92
2020/12/26 09:48:47;;;;;;;8.70;5.45;;;6.80;99.90;;;;;;4979908;28;20090;-94
2020/12/26 09:51:17;;;;;;;8.55;5.82;;;7.00;99.90;;;;;;4986799;28;20042;-94
2020/12/26 09:53:50;;;;;;;9.23;5.38;;;7.40;99.90;;;;;;5015054;28;20465;-94
2020/12/26 09:56:23;;;;;;;8.57;5.15;;;8.00;99.90;;;;;;5034747;28;20052;-92
2020/12/26 09:58:49;;;;;;;15.00;5.80;;;8.20;99.90;;;;;;5005888;28;20969;-93
2020/12/26 10:01:21;;;;;;;8.93;4.80;;;8.50;99.90;;;;;;5010847;28;20057;-92
2020/12/26 10:03:49;;;;;;;5.80;3.95;;;8.90;99.90;;;;;;5017436;28;20038;-92
2020/12/26 10:06:20;;;;;;;8.57;4.55;;;9.00;99.90;;;;;;5017944;28;20022;-93
2020/12/26 10:08:47;;;;;;;9.35;4.55;;;9.00;99.90;;;;;;5016526;28;20021;-93
2020/12/26 10:11:15;;;;;;;9.43;4.28;;;9.40;99.90;;;;;;5015970;28;20041;-95
2020/12/26 10:13:42;;;;;;;6.28;4.13;;;9.80;99.80;;;;;;5017185;28;20034;-95
2020/12/26 10:16:09;;;;;;;7.65;4.00;;;9.50;99.00;;;;;;5015516;28;20030;-95
2020/12/26 10:18:35;;;;;;;9.02;4.40;;;8.80;99.80;;;;;;5016417;28;20030;-94
2020/12/26 10:21:24;;;;;;;6.57;3.90;;;8.00;99.20;;;;;;5016485;28;20481;-94
2020/12/26 10:23:52;;;;;;;8.98;4.20;;;7.20;99.90;;;;;;4999327;28;20033;-95
2020/12/26 10:26:19;;;;;;;7.00;4.80;;;6.60;99.90;;;;;;5015892;28;20105;-95
2020/12/26 10:28:50;;;;;;;7.93;4.70;;;6.10;99.90;;;;;;5019879;28;20141;-95
2020/12/26 10:31:26;;;;;;;8.48;4.30;;;5.70;99.90;;;;;;4998371;28;20048;-93
2020/12/26 10:33:52;;;;;;;7.72;4.35;;;5.40;99.90;;;;;;5016609;28;20055;-94
2020/12/26 10:36:21;;;;;;;7.30;4.25;;;5.20;99.90;;;;;;5015135;28;20468;-93
2020/12/26 10:38:50;;;;;;;10.07;4.57;;;5.10;99.90;;;;;;5014530;28;20036;-94
2020/12/26 10:41:19;;;;;;;7.55;4.25;;;5.00;99.90;;;;;;5015945;28;20093;-93
2020/12/26 10:43:44;;;;;;;8.90;4.40;;;4.90;99.90;;;;;;5014552;28;20474;-93
2020/12/26 10:46:10;;;;;;;8.13;4.47;;;4.90;99.90;;;;;;4996232;28;20032;-93
2020/12/26 10:48:47;;;;;;;6.60;4.28;;;4.90;99.90;;;;;;5013390;28;20348;-93
2020/12/26 10:51:16;;;;;;;7.32;4.25;;;4.90;99.90;;;;;;5012266;28;20050;-92
2020/12/26 10:53:47;;;;;;;6.82;4.00;;;4.90;99.90;;;;;;5011355;28;20037;-92
2020/12/26 10:56:21;;;;;;;8.35;4.60;;;4.90;99.90;;;;;;5000582;28;20137;-94
2020/12/26 10:58:46;;;;;;;7.78;3.92;;;4.90;99.90;;;;;;4992570;28;20022;-93
2020/12/26 11:01:28;;;;;;;7.47;4.22;;;4.90;99.90;;;;;;4993862;28;20026;-93
2020/12/26 11:03:54;;;;;;;10.45;4.10;;;5.00;99.90;;;;;;5009939;28;20065;-95
2020/12/26 11:06:21;;;;;;;7.60;4.15;;;5.10;99.90;;;;;;5014362;28;20038;-93
2020/12/26 11:08:48;;;;;;;8.05;4.13;;;5.00;99.90;;;;;;5000205;28;20029;-94
2020/12/26 11:11:20;;;;;;;7.65;3.33;;;5.00;99.90;;;;;;5017066;28;20062;-93
2020/12/26 11:13:53;;;;;;;7.95;4.28;;;4.90;99.90;;;;;;5002266;28;20073;-94
2020/12/26 11:16:47;;;;;;;9.23;3.70;;;4.90;99.90;;;;;;4996203;28;20026;-95
2020/12/26 11:19:37;;;;;;;;;;;4.90;99.90;;;;;;5012490;28;20045;-94
2020/12/26 11:22:08;;;;;;;8.23;3.63;;;4.90;99.90;;;;;;5012937;28;19901;-95
2020/12/26 11:24:37;;;;;;;6.78;3.53;;;5.00;99.90;;;;;;5012970;28;20033;-95
2020/12/26 11:27:02;;;;;;;8.20;3.35;;;5.00;99.90;;;;;;5016751;28;20030;-95
2020/12/26 11:30:00;;;;;;;8.07;3.50;;;5.00;99.90;;;;;;5015274;28;20049;-94
2020/12/26 11:32:33;;;;;;;6.10;3.75;;;5.00;99.90;;;;;;4996353;28;20084;-95
2020/12/26 11:35:06;;;;;;;7.93;3.80;;;5.00;99.90;;;;;;5010601;28;20041;-94
2020/12/26 11:37:32;;;;;;;5.60;3.40;;;5.00;99.90;;;;;;5009840;28;20034;-94
2020/12/26 11:40:07;;;;;;;6.97;3.65;;;5.00;99.90;;;;;;4996153;28;20038;-94
2020/12/26 11:42:40;;;;;;;7.15;3.50;;;5.00;99.90;;;;;;5014051;28;20120;-95
2020/12/26 11:45:14;;;;;;;9.52;3.88;;;5.00;99.90;;;;;;5013700;28;20046;-95
2020/12/26 11:48:00;;;;;;;;;;;5.00;99.90;;;;;;5015166;28;20037;-95
2020/12/26 11:50:26;;;;;;;7.50;4.20;;;5.00;99.90;;;;;;5001646;28;19912;-96
2020/12/26 11:52:55;;;;;;;10.20;3.55;;;5.00;99.90;;;;;;5014950;28;20050;-96
2020/12/26 11:55:42;;;;;;;8.82;3.83;;;5.10;99.90;;;;;;5017556;28;20026;-95
2020/12/26 11:58:23;;;;;;;6.40;3.25;;;5.10;99.90;;;;;;5019517;28;20026;-95
2020/12/26 12:00:51;;;;;;;6.90;3.63;;;5.10;99.90;;;;;;5018166;28;20040;-95
2020/12/26 12:03:20;;;;;;;6.53;3.38;;;5.10;99.90;;;;;;5018555;28;20029;-95
2020/12/26 12:06:28;;;;;;;;;;;;;;;;;;;;;
2020/12/26 12:08:58;;;;;;;8.63;4.18;;;5.10;99.90;;;;;;5022919;28;20113;-96
2020/12/26 12:11:24;;;;;;;7.43;3.47;;;5.20;99.90;;;;;;5021654;28;20056;-96
2020/12/26 12:13:50;;;;;;;6.10;3.30;;;5.20;99.90;;;;;;5008175;28;20045;-96
2020/12/26 12:16:18;;;;;;;9.23;3.72;;;5.20;99.90;;;;;;5023630;28;20034;-95
2020/12/26 12:18:44;;;;;;;9.65;3.70;;;5.20;99.90;;;;;;5003483;28;20551;-94
2020/12/26 12:21:24;;;;;;;7.45;3.70;;;5.20;99.90;;;;;;5007587;28;20038;-96
2020/12/26 12:23:52;;;;;;;6.05;3.20;;;5.20;99.90;;;;;;5022483;28;20032;-96
2020/12/26 12:26:23;;;;;;;5.85;3.25;;;5.20;99.90;;;;;;5022734;28;20129;-96
2020/12/26 12:28:55;;;;;;;7.75;3.58;;;5.30;99.90;;;;;;5026542;28;20029;-95
2020/12/26 12:31:31;;;;;;;5.80;3.00;;;5.30;99.90;;;;;;5023646;28;20022;-96
2020/12/26 12:34:06;;;;;;;5.45;3.40;;;5.40;99.90;;;;;;5023560;28;20036;-96
2020/12/26 12:36:35;;;;;;;5.63;3.22;;;5.40;99.90;;;;;;5024316;28;20033;-96
2020/12/26 12:39:04;;;;;;;6.45;3.65;;;5.40;99.90;;;;;;5023428;28;20026;-96
2020/12/26 12:41:32;;;;;;;7.25;3.20;;;5.50;99.90;;;;;;5001821;28;20491;-95
2020/12/26 12:43:59;;;;;;;12.20;3.90;;;5.50;99.90;;;;;;5019972;28;20034;-95
2020/12/26 12:46:34;;;;;;;6.57;3.28;;;5.50;99.90;;;;;;5020169;28;20081;-95
2020/12/26 12:49:05;;;;;;;6.97;3.53;;;5.60;99.90;;;;;;5020337;28;20026;-96
2020/12/26 12:51:31;;;;;;;4.50;2.63;;;5.60;99.90;;;;;;5019087;28;20129;-96
2020/12/26 12:54:08;;;;;;;7.07;3.20;;;5.60;99.90;;;;;;5034883;28;20130;-95
2020/12/26 12:56:54;;;;;;;5.47;3.00;;;5.60;99.90;;;;;;5018148;28;20105;-96
2020/12/26 12:59:24;;;;;;;9.45;3.72;;;5.60;99.90;;;;;;5017724;28;20041;-96
2020/12/26 13:01:50;;;;;;;6.00;3.08;;;5.60;99.90;;;;;;5017849;28;20030;-95
2020/12/26 13:04:18;;;;;;;4.60;2.83;;;5.50;99.90;;;;;;5018638;28;20455;-95
2020/12/26 13:06:50;;;;;;;7.45;3.40;;;5.60;99.90;;;;;;5016506;28;20038;-96
2020/12/26 13:09:47;;;;;;;;;;;;;;;;;;;;;
2020/12/26 13:12:17;;;;;;;6.70;3.22;;;5.60;99.90;;;;;;5002357;28;20040;-95
2020/12/26 13:14:47;;;;;;;5.55;3.33;;;5.60;99.90;;;;;;4999658;28;20039;-95
2020/12/26 13:17:50;;;;;;;8.32;3.45;;;5.70;99.90;;;;;;4997843;28;20052;-94
2020/12/26 13:20:43;;;;;;;5.90;3.22;;;5.70;99.90;;;;;;4997308;28;20034;-94
2020/12/26 13:23:12;;;;;;;8.48;3.72;;;5.70;99.90;;;;;;4993562;28;20034;-95
2020/12/26 13:25:43;;;;;;;7.32;3.15;;;5.70;99.90;;;;;;4997457;28;20471;-95